Etusivu
METAR-TAF:

METAR-TAF

Lentoasemat :

Anchorage, Alaska, Yhdysvallat

Leveyspiiri: 61-13N, Pituuspiiri: 149-51W, korkeus merenpinnasta: 42 m

Tämänhetkinen sää

Tämä raportti tehtiin 37 minuuttia sitten, kello 11.53 UTC
Tuuli 3 kn idästä
Lämpötila -1°C
Kosteus 86%
Ilmanpaine 1002 hPa
Näkyvyys: 16.1 km
Muutamia pilviä 2700 ft:n korkeudessa
Hajanaisia pilviä 4800 ft:n korkeudessa
Hajonneita pilviä 7500 ft:n korkeudessa

METAR: PAMR 211153Z 10003KT 10SM FEW027 SCT048 BKN075 M01/M03 A2958 RMK AO2 SLP018 60000 T10061033 10056 21006 51033

Aika: 03:30 (12:30 UTC)


TAF: puuttuu

Säähavainnot ja -ennusteet yli 4000 lentoasemalta (METAR- ja TAF-raportit).

Käytössä olevat sääasemat on merkitty karttaan keltaisilla ja punaisilla pisteillä.

Aseta hiiri pisteen päälle nähdäksesi sääaseman nimen.

Klikkaa sitten nähdäksesi säähavainnot ja -ennusteet.

Kartan vaihtaminen: klikkaa mustalla rastilla varustettuja vihreitä pisteitä, niin voit zoomata sisään; viivalla varustettua vihreää pistettä, niin voit zoomata ulos tai vihreitä nuolia, niin pääset viereisille kartoille.


METAR-TAF: